sensor_id;sensor_type;location;lat;lon;timestamp;P1;P2;P0
34176;PMS7003;20450;49.074;9.158;2024-01-27T00:00:03;6.75;6.25;3.50
34176;PMS7003;20450;49.074;9.158;2024-01-27T00:02:34;5.00;5.00;4.75
34176;PMS7003;20450;49.074;9.158;2024-01-27T00:05:01;6.25;6.25;4.25
34176;PMS7003;20450;49.074;9.158;2024-01-27T00:07:29;6.00;6.00;5.00
34176;PMS7003;20450;49.074;9.158;2024-01-27T00:09:56;5.75;3.75;3.75
34176;PMS7003;20450;49.074;9.158;2024-01-27T00:12:23;6.50;6.50;6.00
34176;PMS7003;20450;49.074;9.158;2024-01-27T00:14:54;11.50;10.50;7.75
34176;PMS7003;20450;49.074;9.158;2024-01-27T00:17:22;8.25;8.25;6.00
34176;PMS7003;20450;49.074;9.158;2024-01-27T00:19:54;5.00;5.00;3.75
34176;PMS7003;20450;49.074;9.158;2024-01-27T00:22:21;7.75;7.25;5.75
34176;PMS7003;20450;49.074;9.158;2024-01-27T00:24:48;7.75;7.75;5.75
34176;PMS7003;20450;49.074;9.158;2024-01-27T00:27:15;10.75;8.25;7.00
34176;PMS7003;20450;49.074;9.158;2024-01-27T00:29:42;8.00;8.00;6.25
34176;PMS7003;20450;49.074;9.158;2024-01-27T00:32:10;7.00;7.00;5.50
34176;PMS7003;20450;49.074;9.158;2024-01-27T00:34:38;5.00;5.00;4.00
34176;PMS7003;20450;49.074;9.158;2024-01-27T00:37:04;7.25;5.75;4.50
34176;PMS7003;20450;49.074;9.158;2024-01-27T00:39:32;6.25;5.75;4.25
34176;PMS7003;20450;49.074;9.158;2024-01-27T00:41:58;8.00;6.00;4.50
34176;PMS7003;20450;49.074;9.158;2024-01-27T00:44:26;2.00;2.00;1.00
34176;PMS7003;20450;49.074;9.158;2024-01-27T00:46:53;5.75;5.75;5.00
34176;PMS7003;20450;49.074;9.158;2024-01-27T00:49:21;6.75;5.75;4.75
34176;PMS7003;20450;49.074;9.158;2024-01-27T00:51:48;10.25;8.00;6.00
34176;PMS7003;20450;49.074;9.158;2024-01-27T00:54:16;7.00;6.00;5.00
34176;PMS7003;20450;49.074;9.158;2024-01-27T00:56:43;7.75;6.75;5.50
34176;PMS7003;20450;49.074;9.158;2024-01-27T00:59:10;6.25;6.25;6.00
34176;PMS7003;20450;49.074;9.158;2024-01-27T01:01:37;8.00;6.25;5.25
34176;PMS7003;20450;49.074;9.158;2024-01-27T01:04:04;9.25;8.00;6.25
34176;PMS7003;20450;49.074;9.158;2024-01-27T01:06:32;7.00;7.00;5.75
34176;PMS7003;20450;49.074;9.158;2024-01-27T01:08:59;9.25;8.75;7.00
34176;PMS7003;20450;49.074;9.158;2024-01-27T01:11:26;8.25;8.00;6.00
34176;PMS7003;20450;49.074;9.158;2024-01-27T01:13:53;10.00;8.75;6.75
34176;PMS7003;20450;49.074;9.158;2024-01-27T01:16:20;10.25;10.25;7.50
34176;PMS7003;20450;49.074;9.158;2024-01-27T01:18:47;8.75;8.00;7.00
34176;PMS7003;20450;49.074;9.158;2024-01-27T01:21:14;6.00;6.00;4.75
34176;PMS7003;20450;49.074;9.158;2024-01-27T01:23:43;9.25;9.25;7.00
34176;PMS7003;20450;49.074;9.158;2024-01-27T01:26:10;7.25;6.25;5.25
34176;PMS7003;20450;49.074;9.158;2024-01-27T01:28:37;9.00;6.75;5.00
34176;PMS7003;20450;49.074;9.158;2024-01-27T01:31:06;8.50;8.00;6.00
34176;PMS7003;20450;49.074;9.158;2024-01-27T01:33:33;10.00;8.00;6.00
34176;PMS7003;20450;49.074;9.158;2024-01-27T01:36:00;7.50;7.25;5.75
34176;PMS7003;20450;49.074;9.158;2024-01-27T01:38:27;8.25;8.25;6.75
34176;PMS7003;20450;49.074;9.158;2024-01-27T01:40:55;5.75;5.75;4.50
34176;PMS7003;20450;49.074;9.158;2024-01-27T01:43:23;6.50;6.50;5.00
34176;PMS7003;20450;49.074;9.158;2024-01-27T01:45:49;9.50;6.75;6.50
34176;PMS7003;20450;49.074;9.158;2024-01-27T01:48:17;4.75;4.75;3.50
34176;PMS7003;20450;49.074;9.158;2024-01-27T01:50:44;7.25;7.25;6.25
34176;PMS7003;20450;49.074;9.158;2024-01-27T01:53:12;9.00;8.00;6.00
34176;PMS7003;20450;49.074;9.158;2024-01-27T01:55:39;9.25;6.75;5.50
34176;PMS7003;20450;49.074;9.158;2024-01-27T01:58:08;6.75;6.75;5.25
34176;PMS7003;20450;49.074;9.158;2024-01-27T02:00:35;9.00;9.00;7.25
34176;PMS7003;20450;49.074;9.158;2024-01-27T02:03:02;14.25;11.25;8.25
34176;PMS7003;20450;49.074;9.158;2024-01-27T02:05:30;10.75;10.75;9.00
34176;PMS7003;20450;49.074;9.158;2024-01-27T02:07:57;9.00;9.00;7.25
34176;PMS7003;20450;49.074;9.158;2024-01-27T02:10:24;9.25;8.75;7.25
34176;PMS7003;20450;49.074;9.158;2024-01-27T02:12:51;8.25;8.25;6.50
34176;PMS7003;20450;49.074;9.158;2024-01-27T02:15:20;10.00;8.25;7.00
34176;PMS7003;20450;49.074;9.158;2024-01-27T02:17:47;10.25;9.00;8.00
34176;PMS7003;20450;49.074;9.158;2024-01-27T02:20:14;7.25;7.25;6.25
34176;PMS7003;20450;49.074;9.158;2024-01-27T02:22:41;9.00;8.00;7.50
34176;PMS7003;20450;49.074;9.158;2024-01-27T02:25:09;7.00;6.75;5.75
34176;PMS7003;20450;49.074;9.158;2024-01-27T02:27:36;8.75;8.75;7.00
34176;PMS7003;20450;49.074;9.158;2024-01-27T02:30:04;8.25;8.25;6.75
34176;PMS7003;20450;49.074;9.158;2024-01-27T02:32:32;10.75;9.50;7.75
34176;PMS7003;20450;49.074;9.158;2024-01-27T02:34:59;12.75;11.00;8.75
34176;PMS7003;20450;49.074;9.158;2024-01-27T02:37:26;10.25;10.25;7.50
34176;PMS7003;20450;49.074;9.158;2024-01-27T02:39:53;13.00;11.50;10.00
34176;PMS7003;20450;49.074;9.158;2024-01-27T02:42:22;9.25;8.25;6.75
34176;PMS7003;20450;49.074;9.158;2024-01-27T02:44:49;8.00;7.50;6.50
34176;PMS7003;20450;49.074;9.158;2024-01-27T02:47:15;12.25;9.25;7.50
34176;PMS7003;20450;49.074;9.158;2024-01-27T02:49:43;10.25;10.25;8.50
34176;PMS7003;20450;49.074;9.158;2024-01-27T02:52:10;9.25;8.00;6.50
34176;PMS7003;20450;49.074;9.158;2024-01-27T02:54:37;7.50;6.50;5.75
34176;PMS7003;20450;49.074;9.158;2024-01-27T02:57:04;11.25;11.25;9.00
34176;PMS7003;20450;49.074;9.158;2024-01-27T02:59:32;11.25;11.25;9.50
34176;PMS7003;20450;49.074;9.158;2024-01-27T03:01:59;9.75;9.75;7.50
34176;PMS7003;20450;49.074;9.158;2024-01-27T03:04:27;10.50;10.50;8.50
34176;PMS7003;20450;49.074;9.158;2024-01-27T03:06:55;9.00;8.75;7.75
34176;PMS7003;20450;49.074;9.158;2024-01-27T03:09:22;8.50;8.25;7.00
34176;PMS7003;20450;49.074;9.158;2024-01-27T03:11:49;10.75;10.75;8.75
34176;PMS7003;20450;49.074;9.158;2024-01-27T03:14:16;12.75;11.00;8.50
34176;PMS7003;20450;49.074;9.158;2024-01-27T03:16:45;9.00;9.00;9.00
34176;PMS7003;20450;49.074;9.158;2024-01-27T03:19:12;9.50;9.50;7.75
34176;PMS7003;20450;49.074;9.158;2024-01-27T03:21:39;11.00;9.25;8.00
34176;PMS7003;20450;49.074;9.158;2024-01-27T03:24:06;11.25;11.00;9.00
34176;PMS7003;20450;49.074;9.158;2024-01-27T03:26:33;9.00;9.00;8.00
34176;PMS7003;20450;49.074;9.158;2024-01-27T03:29:00;10.25;10.25;7.75
34176;PMS7003;20450;49.074;9.158;2024-01-27T03:31:29;10.00;9.00;7.50
34176;PMS7003;20450;49.074;9.158;2024-01-27T03:33:59;9.75;9.00;7.00
34176;PMS7003;20450;49.074;9.158;2024-01-27T03:36:27;10.00;8.50;7.50
34176;PMS7003;20450;49.074;9.158;2024-01-27T03:38:55;12.50;9.00;8.00
34176;PMS7003;20450;49.074;9.158;2024-01-27T03:41:23;9.75;9.75;8.75
34176;PMS7003;20450;49.074;9.158;2024-01-27T03:43:51;10.75;9.50;7.50
34176;PMS7003;20450;49.074;9.158;2024-01-27T03:46:18;10.00;9.00;7.00
34176;PMS7003;20450;49.074;9.158;2024-01-27T03:48:45;12.00;9.75;7.75
34176;PMS7003;20450;49.074;9.158;2024-01-27T03:51:13;9.00;9.00;8.00
34176;PMS7003;20450;49.074;9.158;2024-01-27T03:53:40;10.00;10.00;8.25
34176;PMS7003;20450;49.074;9.158;2024-01-27T03:56:10;8.50;8.50;7.50
34176;PMS7003;20450;49.074;9.158;2024-01-27T03:58:38;14.25;13.00;10.75
34176;PMS7003;20450;49.074;9.158;2024-01-27T04:01:05;12.50;12.50;10.00
34176;PMS7003;20450;49.074;9.158;2024-01-27T04:03:32;15.25;15.25;11.75
34176;PMS7003;20450;49.074;9.158;2024-01-27T04:06:01;18.75;16.00;12.00
34176;PMS7003;20450;49.074;9.158;2024-01-27T04:08:30;17.75;15.25;11.00
34176;PMS7003;20450;49.074;9.158;2024-01-27T04:10:59;10.75;10.50;8.50
34176;PMS7003;20450;49.074;9.158;2024-01-27T04:13:26;10.00;10.00;7.75
34176;PMS7003;20450;49.074;9.158;2024-01-27T04:15:53;14.00;10.00;8.75
34176;PMS7003;20450;49.074;9.158;2024-01-27T04:18:20;12.00;10.75;8.75
34176;PMS7003;20450;49.074;9.158;2024-01-27T04:20:48;8.00;7.00;5.00
34176;PMS7003;20450;49.074;9.158;2024-01-27T04:23:15;9.25;9.00;7.00
34176;PMS7003;20450;49.074;9.158;2024-01-27T04:25:45;12.00;9.50;6.25
34176;PMS7003;20450;49.074;9.158;2024-01-27T04:28:12;12.00;8.75;7.25
34176;PMS7003;20450;49.074;9.158;2024-01-27T04:30:38;8.50;7.50;7.00
34176;PMS7003;20450;49.074;9.158;2024-01-27T04:33:06;9.00;9.00;8.00
34176;PMS7003;20450;49.074;9.158;2024-01-27T04:35:33;8.00;8.00;6.75
34176;PMS7003;20450;49.074;9.158;2024-01-27T04:38:00;9.50;9.00;8.00
34176;PMS7003;20450;49.074;9.158;2024-01-27T04:40:27;10.00;9.00;8.50
34176;PMS7003;20450;49.074;9.158;2024-01-27T04:42:56;9.75;8.25;7.75
34176;PMS7003;20450;49.074;9.158;2024-01-27T04:45:23;8.50;7.50;5.00
34176;PMS7003;20450;49.074;9.158;2024-01-27T04:47:50;11.75;10.00;9.00
34176;PMS7003;20450;49.074;9.158;2024-01-27T04:50:17;10.25;8.50;7.50
34176;PMS7003;20450;49.074;9.158;2024-01-27T04:52:44;10.00;9.50;8.00
34176;PMS7003;20450;49.074;9.158;2024-01-27T04:55:11;10.25;10.25;8.25
34176;PMS7003;20450;49.074;9.158;2024-01-27T04:57:38;10.50;8.00;7.00
34176;PMS7003;20450;49.074;9.158;2024-01-27T05:00:08;11.50;8.75;6.50
34176;PMS7003;20450;49.074;9.158;2024-01-27T05:02:38;11.00;11.00;9.00
34176;PMS7003;20450;49.074;9.158;2024-01-27T05:05:06;10.75;8.50;6.50
34176;PMS7003;20450;49.074;9.158;2024-01-27T05:07:34;11.50;8.25;7.00
34176;PMS7003;20450;49.074;9.158;2024-01-27T05:10:01;11.00;11.00;8.25
34176;PMS7003;20450;49.074;9.158;2024-01-27T05:12:28;9.00;7.00;6.25
34176;PMS7003;20450;49.074;9.158;2024-01-27T05:14:55;12.75;11.50;9.25
34176;PMS7003;20450;49.074;9.158;2024-01-27T05:17:23;11.50;8.50;7.00
34176;PMS7003;20450;49.074;9.158;2024-01-27T05:19:50;10.50;9.50;8.00
34176;PMS7003;20450;49.074;9.158;2024-01-27T05:22:17;9.25;9.25;7.75
34176;PMS7003;20450;49.074;9.158;2024-01-27T05:24:44;7.75;6.50;5.75
34176;PMS7003;20450;49.074;9.158;2024-01-27T05:27:11;12.50;10.00;9.00
34176;PMS7003;20450;49.074;9.158;2024-01-27T05:29:38;7.50;6.50;5.50
34176;PMS7003;20450;49.074;9.158;2024-01-27T05:32:05;12.00;9.25;6.75
34176;PMS7003;20450;49.074;9.158;2024-01-27T05:34:35;14.25;9.75;8.75
34176;PMS7003;20450;49.074;9.158;2024-01-27T05:37:02;9.50;8.75;7.50
34176;PMS7003;20450;49.074;9.158;2024-01-27T05:39:29;12.00;9.25;8.00
34176;PMS7003;20450;49.074;9.158;2024-01-27T05:41:56;12.00;10.25;8.25
34176;PMS7003;20450;49.074;9.158;2024-01-27T05:44:23;11.50;10.50;10.00
34176;PMS7003;20450;49.074;9.158;2024-01-27T05:46:50;11.75;10.50;9.00
34176;PMS7003;20450;49.074;9.158;2024-01-27T05:49:17;14.33;12.00;10.00
34176;PMS7003;20450;49.074;9.158;2024-01-27T05:51:45;11.67;10.67;8.67
34176;PMS7003;20450;49.074;9.158;2024-01-27T05:54:12;15.00;12.25;9.75
34176;PMS7003;20450;49.074;9.158;2024-01-27T05:56:40;14.75;12.50;8.75
34176;PMS7003;20450;49.074;9.158;2024-01-27T05:59:06;12.25;12.00;10.75
34176;PMS7003;20450;49.074;9.158;2024-01-27T06:01:33;13.50;12.25;9.75
34176;PMS7003;20450;49.074;9.158;2024-01-27T06:04:00;16.67;15.33;12.33
34176;PMS7003;20450;49.074;9.158;2024-01-27T06:06:28;13.00;12.00;9.67
34176;PMS7003;20450;49.074;9.158;2024-01-27T06:08:56;14.00;14.00;10.00
34176;PMS7003;20450;49.074;9.158;2024-01-27T06:11:24;16.00;14.00;11.00
34176;PMS7003;20450;49.074;9.158;2024-01-27T06:13:51;14.33;13.33;12.00
34176;PMS7003;20450;49.074;9.158;2024-01-27T06:16:18;24.00;24.00;19.33
34176;PMS7003;20450;49.074;9.158;2024-01-27T06:18:45;16.67;15.67;12.00
34176;PMS7003;20450;49.074;9.158;2024-01-27T06:21:12;16.67;15.33;12.33
34176;PMS7003;20450;49.074;9.158;2024-01-27T06:23:39;15.00;13.00;10.00
34176;PMS7003;20450;49.074;9.158;2024-01-27T06:26:08;11.00;9.00;7.33
34176;PMS7003;20450;49.074;9.158;2024-01-27T06:28:35;18.00;16.33;13.33
34176;PMS7003;20450;49.074;9.158;2024-01-27T06:31:03;10.00;10.00;8.00
34176;PMS7003;20450;49.074;9.158;2024-01-27T06:33:31;14.67;14.67;11.33
34176;PMS7003;20450;49.074;9.158;2024-01-27T06:35:58;14.67;14.67;11.67
34176;PMS7003;20450;49.074;9.158;2024-01-27T06:38:26;14.67;14.67;12.67
34176;PMS7003;20450;49.074;9.158;2024-01-27T06:40:53;22.33;21.33;16.67
34176;PMS7003;20450;49.074;9.158;2024-01-27T06:43:21;19.67;19.67;14.00
34176;PMS7003;20450;49.074;9.158;2024-01-27T06:45:48;20.67;16.67;12.00
34176;PMS7003;20450;49.074;9.158;2024-01-27T06:48:15;13.33;12.00;10.00
34176;PMS7003;20450;49.074;9.158;2024-01-27T06:50:42;14.00;12.00;10.00
34176;PMS7003;20450;49.074;9.158;2024-01-27T06:53:09;17.33;16.00;13.00
34176;PMS7003;20450;49.074;9.158;2024-01-27T06:55:36;16.67;16.67;12.67
34176;PMS7003;20450;49.074;9.158;2024-01-27T06:58:06;16.33;15.67;11.33
34176;PMS7003;20450;49.074;9.158;2024-01-27T07:00:34;14.33;14.00;11.00
34176;PMS7003;20450;49.074;9.158;2024-01-27T07:03:01;14.33;13.00;10.67
34176;PMS7003;20450;49.074;9.158;2024-01-27T07:05:29;16.33;16.33;13.67
34176;PMS7003;20450;49.074;9.158;2024-01-27T07:07:56;17.00;17.00;12.33
34176;PMS7003;20450;49.074;9.158;2024-01-27T07:10:25;20.33;19.00;14.00
34176;PMS7003;20450;49.074;9.158;2024-01-27T07:12:52;19.00;16.67;14.00
34176;PMS7003;20450;49.074;9.158;2024-01-27T07:15:19;16.33;15.67;13.00
34176;PMS7003;20450;49.074;9.158;2024-01-27T07:17:47;19.33;19.33;15.00
34176;PMS7003;20450;49.074;9.158;2024-01-27T07:20:14;45.00;35.00;24.67
34176;PMS7003;20450;49.074;9.158;2024-01-27T07:22:42;23.33;21.67;18.33
34176;PMS7003;20450;49.074;9.158;2024-01-27T07:25:08;20.67;20.00;14.67
34176;PMS7003;20450;49.074;9.158;2024-01-27T07:27:36;13.00;12.75;10.50
34176;PMS7003;20450;49.074;9.158;2024-01-27T07:30:04;14.75;14.75;11.50
34176;PMS7003;20450;49.074;9.158;2024-01-27T07:32:33;13.75;13.75;10.75
34176;PMS7003;20450;49.074;9.158;2024-01-27T07:35:01;15.00;13.75;10.75
34176;PMS7003;20450;49.074;9.158;2024-01-27T07:37:29;19.75;15.00;11.25
34176;PMS7003;20450;49.074;9.158;2024-01-27T07:39:56;19.00;18.00;13.75
34176;PMS7003;20450;49.074;9.158;2024-01-27T07:42:23;14.75;11.75;10.75
34176;PMS7003;20450;49.074;9.158;2024-01-27T07:44:50;15.00;14.25;10.00
34176;PMS7003;20450;49.074;9.158;2024-01-27T07:47:17;12.50;12.25;10.00
34176;PMS7003;20450;49.074;9.158;2024-01-27T07:49:44;8.25;8.25;6.00
34176;PMS7003;20450;49.074;9.158;2024-01-27T07:52:13;37.50;35.25;24.25
34176;PMS7003;20450;49.074;9.158;2024-01-27T07:54:40;28.00;25.00;18.75
34176;PMS7003;20450;49.074;9.158;2024-01-27T07:57:07;21.25;16.00;12.00
34176;PMS7003;20450;49.074;9.158;2024-01-27T07:59:34;10.00;10.00;9.00
34176;PMS7003;20450;49.074;9.158;2024-01-27T08:02:01;12.50;11.50;9.00
34176;PMS7003;20450;49.074;9.158;2024-01-27T08:04:28;9.00;7.00;6.75
34176;PMS7003;20450;49.074;9.158;2024-01-27T08:06:55;10.00;9.50;8.50
34176;PMS7003;20450;49.074;9.158;2024-01-27T08:09:24;11.00;9.25;8.25
34176;PMS7003;20450;49.074;9.158;2024-01-27T08:11:51;9.00;7.00;6.33
34176;PMS7003;20450;49.074;9.158;2024-01-27T08:14:18;7.00;7.00;4.00
34176;PMS7003;20450;49.074;9.158;2024-01-27T08:16:47;12.67;9.33;7.00
34176;PMS7003;20450;49.074;9.158;2024-01-27T08:19:14;19.67;13.33;9.67
34176;PMS7003;20450;49.074;9.158;2024-01-27T08:21:42;12.67;12.33;9.00
34176;PMS7003;20450;49.074;9.158;2024-01-27T08:24:09;14.33;13.00;10.00
34176;PMS7003;20450;49.074;9.158;2024-01-27T08:26:37;13.00;12.33;9.00
34176;PMS7003;20450;49.074;9.158;2024-01-27T08:29:04;12.33;9.67;7.00
34176;PMS7003;20450;49.074;9.158;2024-01-27T08:31:31;10.75;10.00;8.50
34176;PMS7003;20450;49.074;9.158;2024-01-27T08:33:58;0.00;0.00;0.00
34176;PMS7003;20450;49.074;9.158;2024-01-27T08:36:25;12.50;12.50;9.50
34176;PMS7003;20450;49.074;9.158;2024-01-27T08:38:54;25.50;23.25;17.75
34176;PMS7003;20450;49.074;9.158;2024-01-27T08:41:22;15.25;15.00;12.75
34176;PMS7003;20450;49.074;9.158;2024-01-27T08:44:03;15.00;12.00;9.00
34176;PMS7003;20450;49.074;9.158;2024-01-27T08:46:32;16.25;12.50;9.00
34176;PMS7003;20450;49.074;9.158;2024-01-27T08:48:59;12.00;12.00;7.00
34176;PMS7003;20450;49.074;9.158;2024-01-27T08:51:27;9.25;9.25;7.00
34176;PMS7003;20450;49.074;9.158;2024-01-27T08:53:54;12.25;10.00;8.00
34176;PMS7003;20450;49.074;9.158;2024-01-27T08:56:21;11.25;10.00;7.00
34176;PMS7003;20450;49.074;9.158;2024-01-27T08:58:48;9.75;9.25;6.25
34176;PMS7003;20450;49.074;9.158;2024-01-27T09:01:16;11.33;9.33;7.00
34176;PMS7003;20450;49.074;9.158;2024-01-27T09:03:43;11.33;9.00;6.00
34176;PMS7003;20450;49.074;9.158;2024-01-27T09:06:11;12.00;9.33;7.00
34176;PMS7003;20450;49.074;9.158;2024-01-27T09:08:38;4.67;4.67;4.00
34176;PMS7003;20450;49.074;9.158;2024-01-27T09:11:05;10.00;9.00;6.33
34176;PMS7003;20450;49.074;9.158;2024-01-27T09:13:34;6.33;6.33;5.33
34176;PMS7003;20450;49.074;9.158;2024-01-27T09:16:01;9.25;9.25;5.00
34176;PMS7003;20450;49.074;9.158;2024-01-27T09:18:30;9.00;7.67;7.00
34176;PMS7003;20450;49.074;9.158;2024-01-27T09:20:57;10.25;9.75;6.75
34176;PMS7003;20450;49.074;9.158;2024-01-27T09:23:24;8.75;7.25;5.50
34176;PMS7003;20450;49.074;9.158;2024-01-27T09:25:51;10.00;9.67;9.00
34176;PMS7003;20450;49.074;9.158;2024-01-27T09:28:19;2.50;2.50;1.00
34176;PMS7003;20450;49.074;9.158;2024-01-27T09:30:46;9.50;9.50;6.50
34176;PMS7003;20450;49.074;9.158;2024-01-27T09:33:13;9.75;8.50;6.00
34176;PMS7003;20450;49.074;9.158;2024-01-27T09:35:42;10.50;9.00;6.25
34176;PMS7003;20450;49.074;9.158;2024-01-27T09:38:09;9.25;8.00;6.00
34176;PMS7003;20450;49.074;9.158;2024-01-27T09:40:36;9.75;9.75;7.50
34176;PMS7003;20450;49.074;9.158;2024-01-27T09:43:05;11.25;11.25;7.00
34176;PMS7003;20450;49.074;9.158;2024-01-27T09:45:38;11.75;11.00;8.25
34176;PMS7003;20450;49.074;9.158;2024-01-27T09:48:08;7.50;4.00;1.50
34176;PMS7003;20450;49.074;9.158;2024-01-27T09:50:41;12.60;8.00;7.20
34176;PMS7003;20450;49.074;9.158;2024-01-27T09:53:11;10.80;8.00;7.00
34176;PMS7003;20450;49.074;9.158;2024-01-27T09:55:41;7.00;7.00;5.00
34176;PMS7003;20450;49.074;9.158;2024-01-27T09:58:10;10.40;9.60;8.00
34176;PMS7003;20450;49.074;9.158;2024-01-27T10:00:38;7.80;7.20;5.40
34176;PMS7003;20450;49.074;9.158;2024-01-27T10:03:08;8.00;8.00;7.00
34176;PMS7003;20450;49.074;9.158;2024-01-27T10:05:36;12.00;9.20;8.40
34176;PMS7003;20450;49.074;9.158;2024-01-27T10:08:08;11.00;8.40;7.00
34176;PMS7003;20450;49.074;9.158;2024-01-27T10:10:35;8.00;6.60;5.00
34176;PMS7003;20450;49.074;9.158;2024-01-27T10:13:05;7.60;5.40;5.00
34176;PMS7003;20450;49.074;9.158;2024-01-27T10:15:33;8.20;7.20;5.40
34176;PMS7003;20450;49.074;9.158;2024-01-27T10:18:05;10.20;10.20;7.80
34176;PMS7003;20450;49.074;9.158;2024-01-27T10:20:34;9.80;8.40;5.40
34176;PMS7003;20450;49.074;9.158;2024-01-27T10:23:11;7.00;7.00;5.00
34176;PMS7003;20450;49.074;9.158;2024-01-27T10:25:42;7.80;7.80;6.20
34176;PMS7003;20450;49.074;9.158;2024-01-27T10:28:11;14.60;13.00;9.40
34176;PMS7003;20450;49.074;9.158;2024-01-27T10:30:42;12.80;10.60;8.00
34176;PMS7003;20450;49.074;9.158;2024-01-27T10:33:09;7.20;7.20;6.20
34176;PMS7003;20450;49.074;9.158;2024-01-27T10:35:38;9.20;8.00;7.00
34176;PMS7003;20450;49.074;9.158;2024-01-27T10:38:04;17.80;12.40;7.80
34176;PMS7003;20450;49.074;9.158;2024-01-27T10:40:34;10.80;10.20;8.00
34176;PMS7003;20450;49.074;9.158;2024-01-27T10:43:02;7.80;6.60;5.80
34176;PMS7003;20450;49.074;9.158;2024-01-27T10:45:35;9.80;6.20;5.40
34176;PMS7003;20450;49.074;9.158;2024-01-27T10:48:04;8.20;8.20;7.00
34176;PMS7003;20450;49.074;9.158;2024-01-27T10:50:36;10.80;9.20;7.40
34176;PMS7003;20450;49.074;9.158;2024-01-27T10:53:15;7.20;5.40;5.00
34176;PMS7003;20450;49.074;9.158;2024-01-27T10:55:53;8.80;7.40;6.40
34176;PMS7003;20450;49.074;9.158;2024-01-27T10:58:25;7.80;6.60;6.00
34176;PMS7003;20450;49.074;9.158;2024-01-27T11:00:54;9.25;9.00;6.25
34176;PMS7003;20450;49.074;9.158;2024-01-27T11:03:24;6.25;6.00;3.75
34176;PMS7003;20450;49.074;9.158;2024-01-27T11:05:56;10.00;6.00;3.75
34176;PMS7003;20450;49.074;9.158;2024-01-27T11:08:25;6.00;6.00;4.00
34176;PMS7003;20450;49.074;9.158;2024-01-27T11:10:54;9.75;9.25;6.75
34176;PMS7003;20450;49.074;9.158;2024-01-27T11:13:22;11.25;7.00;6.25
34176;PMS7003;20450;49.074;9.158;2024-01-27T11:15:51;11.20;7.00;5.00
34176;PMS7003;20450;49.074;9.158;2024-01-27T11:18:18;7.60;7.00;5.00
34176;PMS7003;20450;49.074;9.158;2024-01-27T11:20:48;4.80;4.80;3.60
34176;PMS7003;20450;49.074;9.158;2024-01-27T11:23:20;11.00;8.00;6.60
34176;PMS7003;20450;49.074;9.158;2024-01-27T11:25:47;7.20;6.20;4.80
34176;PMS7003;20450;49.074;9.158;2024-01-27T11:28:16;8.60;8.60;7.60
34176;PMS7003;20450;49.074;9.158;2024-01-27T11:30:45;8.00;7.60;5.00
34176;PMS7003;20450;49.074;9.158;2024-01-27T11:33:14;10.00;7.20;5.00
34176;PMS7003;20450;49.074;9.158;2024-01-27T11:35:42;6.20;6.20;4.60
34176;PMS7003;20450;49.074;9.158;2024-01-27T11:38:09;7.00;4.00;2.80
34176;PMS7003;20450;49.074;9.158;2024-01-27T11:40:44;7.00;7.00;4.00
34176;PMS7003;20450;49.074;9.158;2024-01-27T11:43:16;4.80;4.40;4.00
34176;PMS7003;20450;49.074;9.158;2024-01-27T11:45:43;8.20;5.20;4.80
34176;PMS7003;20450;49.074;9.158;2024-01-27T11:48:20;6.00;6.00;4.00
34176;PMS7003;20450;49.074;9.158;2024-01-27T11:50:48;7.00;4.80;3.80
34176;PMS7003;20450;49.074;9.158;2024-01-27T11:53:15;6.80;4.60;4.40
34176;PMS7003;20450;49.074;9.158;2024-01-27T11:55:42;9.50;8.50;5.75
34176;PMS7003;20450;49.074;9.158;2024-01-27T11:58:23;8.00;8.00;5.00
34176;PMS7003;20450;49.074;9.158;2024-01-27T12:00:50;8.40;6.20;4.00
34176;PMS7003;20450;49.074;9.158;2024-01-27T12:03:21;4.40;4.40;3.60
34176;PMS7003;20450;49.074;9.158;2024-01-27T12:05:48;7.00;5.40;4.00
34176;PMS7003;20450;49.074;9.158;2024-01-27T12:08:16;5.00;3.60;3.20
34176;PMS7003;20450;49.074;9.158;2024-01-27T12:10:44;7.00;7.00;5.00
34176;PMS7003;20450;49.074;9.158;2024-01-27T12:13:11;5.20;4.40;3.80
34176;PMS7003;20450;49.074;9.158;2024-01-27T12:15:41;4.00;4.00;3.80
34176;PMS7003;20450;49.074;9.158;2024-01-27T12:18:10;8.00;4.40;2.00
34176;PMS7003;20450;49.074;9.158;2024-01-27T12:20:38;7.20;7.20;4.80
34176;PMS7003;20450;49.074;9.158;2024-01-27T12:23:06;7.60;6.00;3.20
34176;PMS7003;20450;49.074;9.158;2024-01-27T12:25:33;4.80;4.00;2.00
34176;PMS7003;20450;49.074;9.158;2024-01-27T12:28:02;5.60;5.00;4.00
34176;PMS7003;20450;49.074;9.158;2024-01-27T12:30:31;6.80;5.00;4.00
34176;PMS7003;20450;49.074;9.158;2024-01-27T12:33:01;4.60;4.60;2.80
34176;PMS7003;20450;49.074;9.158;2024-01-27T12:35:38;4.00;4.00;2.80
34176;PMS7003;20450;49.074;9.158;2024-01-27T12:38:05;8.80;4.00;2.00
34176;PMS7003;20450;49.074;9.158;2024-01-27T12:40:32;4.20;4.20;4.00
34176;PMS7003;20450;49.074;9.158;2024-01-27T12:42:59;4.60;4.40;4.00
34176;PMS7003;20450;49.074;9.158;2024-01-27T12:45:26;5.00;5.00;4.00
34176;PMS7003;20450;49.074;9.158;2024-01-27T12:47:56;4.00;4.00;3.00
34176;PMS7003;20450;49.074;9.158;2024-01-27T12:50:25;3.75;3.25;3.00
34176;PMS7003;20450;49.074;9.158;2024-01-27T12:52:53;4.50;4.00;3.75
34176;PMS7003;20450;49.074;9.158;2024-01-27T12:55:21;7.00;5.00;5.00
34176;PMS7003;20450;49.074;9.158;2024-01-27T12:57:48;5.75;3.25;3.00
34176;PMS7003;20450;49.074;9.158;2024-01-27T13:00:15;7.00;7.00;4.50
34176;PMS7003;20450;49.074;9.158;2024-01-27T13:02:44;5.50;5.50;3.25
34176;PMS7003;20450;49.074;9.158;2024-01-27T13:05:11;7.00;7.00;3.75
34176;PMS7003;20450;49.074;9.158;2024-01-27T13:07:41;6.75;5.50;4.00
34176;PMS7003;20450;49.074;9.158;2024-01-27T13:10:08;4.00;3.25;3.00
34176;PMS7003;20450;49.074;9.158;2024-01-27T13:12:35;6.00;4.00;3.33
34176;PMS7003;20450;49.074;9.158;2024-01-27T13:15:02;7.50;7.50;6.50
34176;PMS7003;20450;49.074;9.158;2024-01-27T13:17:31;8.25;6.75;5.50
34176;PMS7003;20450;49.074;9.158;2024-01-27T13:19:58;4.67;3.67;3.00
34176;PMS7003;20450;49.074;9.158;2024-01-27T13:22:27;6.00;4.00;3.00
34176;PMS7003;20450;49.074;9.158;2024-01-27T13:24:55;4.00;4.00;3.00
34176;PMS7003;20450;49.074;9.158;2024-01-27T13:27:22;4.00;4.00;3.67
34176;PMS7003;20450;49.074;9.158;2024-01-27T13:29:51;4.00;2.33;2.33
34176;PMS7003;20450;49.074;9.158;2024-01-27T13:32:19;3.67;1.67;1.00
34176;PMS7003;20450;49.074;9.158;2024-01-27T13:34:46;5.33;5.33;2.33
34176;PMS7003;20450;49.074;9.158;2024-01-27T13:37:13;1.67;1.67;1.00
34176;PMS7003;20450;49.074;9.158;2024-01-27T13:39:40;1.00;1.00;0.33
34176;PMS7003;20450;49.074;9.158;2024-01-27T13:42:09;6.00;6.00;4.00
34176;PMS7003;20450;49.074;9.158;2024-01-27T13:44:36;8.50;7.00;5.00
34176;PMS7003;20450;49.074;9.158;2024-01-27T13:47:03;6.50;4.00;4.00
34176;PMS7003;20450;49.074;9.158;2024-01-27T13:49:30;0.00;0.00;0.00
34176;PMS7003;20450;49.074;9.158;2024-01-27T13:51:59;7.50;6.00;4.00
34176;PMS7003;20450;49.074;9.158;2024-01-27T13:54:30;3.50;1.00;0.25
34176;PMS7003;20450;49.074;9.158;2024-01-27T13:56:57;3.50;3.50;3.00
34176;PMS7003;20450;49.074;9.158;2024-01-27T13:59:26;5.33;4.00;3.00
34176;PMS7003;20450;49.074;9.158;2024-01-27T14:01:55;7.67;6.00;4.00
34176;PMS7003;20450;49.074;9.158;2024-01-27T14:04:22;4.33;3.00;1.67
34176;PMS7003;20450;49.074;9.158;2024-01-27T14:06:49;5.33;5.33;4.00
34176;PMS7003;20450;49.074;9.158;2024-01-27T14:09:17;3.00;3.00;3.00
34176;PMS7003;20450;49.074;9.158;2024-01-27T14:11:44;4.00;4.00;3.00
34176;PMS7003;20450;49.074;9.158;2024-01-27T14:14:11;8.67;4.67;4.67